CheckWX is a tool to help pilots better visualize weather data.  It is not intended as a substitute for an official pre-flight weather briefing.

03:06:49 UTC

OISL TAF
Lar Airport
Lar, Iran
TAF OISL 172300Z 1800/1906 14008KT 7000 NSC BECMG 1809/1810 FEW035CB SCT040 BKN100 BECMG 1816/1818 FEW035 SCT040 SCT100

Feb-18@
00:00 UTC

Feb-18 @ 00:00 UTC

Feb-18@
09:00 UTC

Feb-18 @ 09:00 UTC

TAF OISL 172300Z 1800/1906 14008KT 7000 NSC
Wind
  • 140° at 8 KTS
Cloud Levels
  • No significant clouds

Feb-18@
09:00 UTC

Feb-18 @ 09:00 UTC

Feb-18@
16:00 UTC

Feb-18 @ 16:00 UTC

BECMG 1809/1810 FEW035CB SCT040 BKN100

Becoming

Becoming Conditions expected by Tue, Feb 18, 2020 @ 10:00 UTC

Wind
  • 140° at 8 KTS
Cloud Levels
  • Few at 3,500' AGL
  • Scattered at 4,000' AGL
  • Broken at 10,000' AGL

Feb-18@
16:00 UTC

Feb-18 @ 16:00 UTC

Feb-19@
06:00 UTC

Feb-19 @ 06:00 UTC

BECMG 1816/1818 FEW035 SCT040 SCT100

Becoming

Becoming Conditions expected by Tue, Feb 18, 2020 @ 18:00 UTC

Wind
  • 140° at 8 KTS
Cloud Levels
  • Few at 3,500' AGL
  • Scattered at 4,000' AGL
  • Scattered at 10,000' AGL